createdAt,value
2018-01-13T00:00:25.767Z,1.30
2018-01-13T00:02:53.316Z,1.30
2018-01-13T00:05:20.840Z,1.40
2018-01-13T00:07:49.184Z,1.40
2018-01-13T00:10:16.704Z,1.40
2018-01-13T00:12:44.260Z,1.40
2018-01-13T00:15:11.798Z,1.40
2018-01-13T00:17:40.128Z,1.40
2018-01-13T00:20:07.660Z,1.40
2018-01-13T00:22:38.985Z,1.30
2018-01-13T00:25:07.297Z,1.30
2018-01-13T00:27:34.832Z,1.30
2018-01-13T00:30:02.381Z,1.30
2018-01-13T00:32:29.921Z,1.30
2018-01-13T00:34:57.468Z,1.30
2018-01-13T00:37:25.006Z,1.30
2018-01-13T00:39:52.565Z,1.40
2018-01-13T00:42:20.103Z,1.40
2018-01-13T00:44:47.660Z,1.40
2018-01-13T00:47:15.184Z,1.40
2018-01-13T00:49:43.501Z,1.50
2018-01-13T00:52:11.060Z,1.50
2018-01-13T00:54:38.607Z,1.50
2018-01-13T00:57:06.140Z,1.60
2018-01-13T00:59:33.704Z,1.50
2018-01-13T01:02:01.243Z,1.60
2018-01-13T01:04:29.566Z,1.60
2018-01-13T01:06:57.098Z,1.50
2018-01-13T01:09:24.640Z,1.60
2018-01-13T01:11:52.959Z,1.60
2018-01-13T01:14:20.512Z,1.50
2018-01-13T01:16:48.046Z,1.50
2018-01-13T01:19:15.623Z,1.60
2018-01-13T01:21:43.157Z,1.60
2018-01-13T01:24:11.470Z,1.60
2018-01-13T01:26:39.768Z,1.60
2018-01-13T01:29:07.317Z,1.60
2018-01-13T01:31:53.905Z,1.60
2018-01-13T01:34:21.450Z,1.60
2018-01-13T01:36:48.984Z,1.60
2018-01-13T01:39:17.315Z,1.50
2018-01-13T01:41:44.850Z,1.50
2018-01-13T01:44:13.165Z,1.50
2018-01-13T01:46:40.694Z,1.50
2018-01-13T01:49:08.249Z,1.40
2018-01-13T01:51:35.785Z,1.40
2018-01-13T01:54:03.333Z,1.40
2018-01-13T01:56:31.634Z,1.40
2018-01-13T01:58:59.184Z,1.40
2018-01-13T02:01:26.714Z,1.40
2018-01-13T02:03:55.037Z,1.40
2018-01-13T02:06:22.559Z,1.40
2018-01-13T02:08:50.869Z,1.50
2018-01-13T02:11:18.396Z,1.40
2018-01-13T02:13:46.717Z,1.40
2018-01-13T02:16:14.255Z,1.40
2018-01-13T02:18:41.805Z,1.50
2018-01-13T02:21:09.344Z,1.40
2018-01-13T02:23:37.652Z,1.50
2018-01-13T02:26:05.183Z,1.50
2018-01-13T02:28:33.475Z,1.50
2018-01-13T02:31:01.015Z,1.50
2018-01-13T02:33:29.327Z,1.50
2018-01-13T02:35:56.878Z,1.50
2018-01-13T02:38:24.413Z,1.60
2018-01-13T02:40:51.977Z,1.60
2018-01-13T02:43:19.527Z,1.50
2018-01-13T02:45:47.084Z,1.60
2018-01-13T02:48:14.627Z,1.50
2018-01-13T02:50:42.948Z,1.50
2018-01-13T02:53:10.490Z,1.50
2018-01-13T02:55:38.040Z,1.50
2018-01-13T02:58:05.580Z,1.50
2018-01-13T03:00:33.134Z,1.50
2018-01-13T03:03:01.438Z,1.50
2018-01-13T03:05:28.992Z,1.50
2018-01-13T03:07:56.521Z,1.50
2018-01-13T03:10:24.083Z,1.50
2018-01-13T03:12:51.806Z,1.50
2018-01-13T03:15:19.356Z,1.50
2018-01-13T03:17:46.897Z,1.50
2018-01-13T03:20:14.456Z,1.50
2018-01-13T03:22:41.996Z,1.50
2018-01-13T03:25:10.322Z,1.50
2018-01-13T03:27:37.897Z,1.40
2018-01-13T03:30:05.453Z,1.50
2018-01-13T03:32:32.972Z,1.40
2018-01-13T03:35:00.532Z,1.40
2018-01-13T03:37:28.514Z,1.50
2018-01-13T03:39:56.064Z,1.50
2018-01-13T03:42:23.601Z,1.50
2018-01-13T03:44:51.917Z,1.50
2018-01-13T03:47:19.457Z,1.50
2018-01-13T03:49:47.002Z,1.50
2018-01-13T03:52:14.525Z,1.50
2018-01-13T03:54:42.090Z,1.50
2018-01-13T03:57:09.627Z,1.50
2018-01-13T03:59:37.180Z,1.50
2018-01-13T04:02:04.734Z,1.40
2018-01-13T04:04:32.288Z,1.40
2018-01-13T04:06:59.863Z,1.40
2018-01-13T04:09:27.415Z,1.40
2018-01-13T04:11:54.946Z,1.40
2018-01-13T04:14:22.503Z,1.40
2018-01-13T04:16:50.038Z,1.40
2018-01-13T04:19:17.584Z,1.40
2018-01-13T04:21:45.885Z,1.40
2018-01-13T04:24:13.414Z,1.30
2018-01-13T04:26:41.803Z,1.40
2018-01-13T04:29:09.344Z,1.30
2018-01-13T04:31:41.749Z,1.40
2018-01-13T04:34:09.283Z,1.40
2018-01-13T04:36:36.828Z,1.40
2018-01-13T04:39:04.397Z,1.40
2018-01-13T04:41:32.717Z,1.40
2018-01-13T04:44:00.246Z,1.40
2018-01-13T04:46:27.808Z,1.40
2018-01-13T04:48:56.105Z,1.40
2018-01-13T04:51:23.665Z,1.30
2018-01-13T04:53:51.206Z,1.40
2018-01-13T04:56:18.759Z,1.30
2018-01-13T04:58:46.298Z,1.30
2018-01-13T05:01:13.854Z,1.30
2018-01-13T05:03:41.381Z,1.30
2018-01-13T05:06:08.925Z,1.40
2018-01-13T05:08:36.462Z,1.40
2018-01-13T05:11:04.019Z,1.30
2018-01-13T05:13:31.561Z,1.30
2018-01-13T05:15:59.875Z,1.40
2018-01-13T05:18:27.398Z,1.40
2018-01-13T05:20:55.721Z,1.40
2018-01-13T05:23:23.257Z,1.40
2018-01-13T05:25:50.813Z,1.40
2018-01-13T05:28:18.336Z,1.40
2018-01-13T05:30:46.889Z,1.40
2018-01-13T05:33:14.418Z,1.40
2018-01-13T05:35:41.974Z,1.40
2018-01-13T05:38:09.512Z,1.40
2018-01-13T05:40:37.076Z,1.40
2018-01-13T05:43:04.611Z,1.40
2018-01-13T05:45:32.936Z,1.40
2018-01-13T05:48:00.468Z,1.40
2018-01-13T05:50:28.012Z,1.40
2018-01-13T05:52:55.549Z,1.40
2018-01-13T05:55:23.096Z,1.40
2018-01-13T05:57:50.642Z,1.40
2018-01-13T06:00:18.195Z,1.40
2018-01-13T06:02:45.724Z,1.40
2018-01-13T06:05:13.297Z,1.40
2018-01-13T06:07:40.836Z,1.40
2018-01-13T06:10:08.388Z,1.40
2018-01-13T06:12:35.925Z,1.40
2018-01-13T06:15:03.473Z,1.40
2018-01-13T06:17:31.007Z,1.40
2018-01-13T06:19:58.563Z,1.40
2018-01-13T06:22:26.091Z,1.40
2018-01-13T06:24:53.640Z,1.40
2018-01-13T06:27:21.202Z,1.40
2018-01-13T06:29:48.735Z,1.40
2018-01-13T06:32:16.300Z,1.40
2018-01-13T06:34:44.650Z,1.40
2018-01-13T06:37:12.204Z,1.40
2018-01-13T06:39:39.738Z,1.40
2018-01-13T06:42:07.281Z,1.40
2018-01-13T06:44:34.826Z,1.40
2018-01-13T06:47:02.382Z,1.40
2018-01-13T06:49:29.914Z,1.40
2018-01-13T06:51:57.468Z,1.30
2018-01-13T06:54:24.992Z,1.30
2018-01-13T06:56:52.556Z,1.30
2018-01-13T06:59:20.082Z,1.30
2018-01-13T07:01:47.636Z,1.30
2018-01-13T07:04:15.176Z,1.30
2018-01-13T07:06:43.489Z,1.30
2018-01-13T07:09:11.037Z,1.30
2018-01-13T07:11:38.602Z,1.30
2018-01-13T07:14:06.130Z,1.30
2018-01-13T07:16:34.449Z,1.30
2018-01-13T07:19:01.964Z,1.30
2018-01-13T07:21:30.276Z,1.30
2018-01-13T07:23:57.814Z,1.30
2018-01-13T07:26:25.360Z,1.30
2018-01-13T07:28:53.661Z,1.30
2018-01-13T07:31:21.213Z,1.30
2018-01-13T07:33:48.750Z,1.30
2018-01-13T07:36:16.333Z,1.30
2018-01-13T07:38:43.866Z,1.30
2018-01-13T07:41:12.186Z,1.40
2018-01-13T07:43:39.713Z,1.40
2018-01-13T07:46:08.020Z,1.40
2018-01-13T07:48:35.541Z,1.40
2018-01-13T07:51:03.865Z,1.40
2018-01-13T07:53:31.392Z,1.40
2018-01-13T07:55:58.950Z,1.40
2018-01-13T07:58:26.478Z,1.40
2018-01-13T08:00:54.794Z,1.40
2018-01-13T08:03:22.330Z,1.40
2018-01-13T08:05:50.649Z,1.40
2018-01-13T08:08:18.180Z,1.40
2018-01-13T08:10:45.733Z,1.50
2018-01-13T08:13:13.260Z,1.50
2018-01-13T08:15:40.818Z,1.50
2018-01-13T08:18:08.344Z,1.50
2018-01-13T08:20:35.897Z,1.60
2018-01-13T08:23:03.434Z,1.60
2018-01-13T08:25:31.002Z,1.60
2018-01-13T08:27:58.539Z,1.70
2018-01-13T08:30:26.079Z,1.70
2018-01-13T08:32:54.409Z,1.70
2018-01-13T08:35:21.941Z,1.70
2018-01-13T08:37:49.497Z,1.70
2018-01-13T08:40:17.035Z,1.70
2018-01-13T08:42:45.346Z,1.80
2018-01-13T08:45:12.875Z,1.80
2018-01-13T08:47:41.200Z,1.80
2018-01-13T08:50:08.777Z,1.80
2018-01-13T08:52:36.329Z,1.90
2018-01-13T08:55:03.856Z,1.90
2018-01-13T08:57:31.413Z,2.00
2018-01-13T08:59:58.960Z,2.00
2018-01-13T09:02:30.212Z,2.00
2018-01-13T09:04:57.750Z,2.00
2018-01-13T09:07:26.058Z,2.10
2018-01-13T09:09:53.812Z,2.10
2018-01-13T09:12:21.364Z,2.20
2018-01-13T09:14:48.896Z,2.30
2018-01-13T09:17:17.205Z,2.30
2018-01-13T09:19:44.729Z,2.40
2018-01-13T09:22:13.056Z,2.50
2018-01-13T09:24:40.620Z,2.50
2018-01-13T09:27:08.181Z,2.50
2018-01-13T09:29:35.705Z,2.60
2018-01-13T09:32:03.290Z,2.60
2018-01-13T09:34:30.821Z,2.70
2018-01-13T09:36:58.381Z,2.70
2018-01-13T09:39:25.909Z,2.70
2018-01-13T09:41:54.265Z,2.90
2018-01-13T09:44:21.803Z,2.80
2018-01-13T09:46:49.390Z,2.90
2018-01-13T09:49:16.917Z,2.90
2018-01-13T09:51:44.617Z,3.00
2018-01-13T09:54:12.146Z,3.10
2018-01-13T09:56:39.689Z,3.20
2018-01-13T09:59:07.227Z,3.20
2018-01-13T10:01:34.784Z,3.20
2018-01-13T10:04:02.321Z,3.30
2018-01-13T10:06:30.648Z,3.40
2018-01-13T10:08:58.180Z,3.40
2018-01-13T10:11:25.731Z,3.50
2018-01-13T10:13:53.268Z,3.50
2018-01-13T10:16:20.813Z,3.60
2018-01-13T10:18:48.357Z,3.60
2018-01-13T10:21:15.888Z,3.50
2018-01-13T10:23:43.451Z,3.60
2018-01-13T10:26:10.980Z,3.60
2018-01-13T10:28:38.524Z,3.70
2018-01-13T10:31:06.833Z,3.80
2018-01-13T10:33:35.236Z,3.80
2018-01-13T10:36:02.768Z,3.80
2018-01-13T10:38:30.326Z,3.90
2018-01-13T10:40:57.869Z,4.00
2018-01-13T10:43:25.426Z,4.00
2018-01-13T10:45:52.988Z,4.10
2018-01-13T10:48:21.303Z,4.10
2018-01-13T10:50:48.846Z,4.10
2018-01-13T10:53:16.433Z,4.10
2018-01-13T10:55:43.966Z,4.20
2018-01-13T10:58:11.512Z,4.20
2018-01-13T11:00:39.057Z,4.30
2018-01-13T11:03:06.620Z,4.30
2018-01-13T11:05:34.170Z,4.40
2018-01-13T11:08:01.733Z,4.50
2018-01-13T11:10:29.264Z,4.40
2018-01-13T11:12:56.825Z,4.50
2018-01-13T11:15:24.354Z,4.50
2018-01-13T11:17:51.913Z,4.40
2018-01-13T11:20:19.456Z,4.50
2018-01-13T11:22:47.013Z,4.40
2018-01-13T11:25:14.540Z,4.40
2018-01-13T11:27:42.089Z,4.40
2018-01-13T11:30:09.636Z,4.50
2018-01-13T11:32:37.960Z,4.60
2018-01-13T11:35:05.492Z,4.60
2018-01-13T11:37:33.053Z,4.70
2018-01-13T11:40:00.595Z,4.70
2018-01-13T11:42:28.912Z,4.70
2018-01-13T11:44:56.441Z,4.70
2018-01-13T11:47:23.994Z,4.80
2018-01-13T11:49:52.297Z,5.00
2018-01-13T11:52:19.849Z,4.90
2018-01-13T11:54:47.385Z,4.90
2018-01-13T11:57:15.705Z,5.00
2018-01-13T11:59:43.241Z,4.90
2018-01-13T12:02:10.789Z,5.00
2018-01-13T12:04:38.313Z,5.00
2018-01-13T12:07:05.890Z,4.80
2018-01-13T12:09:34.193Z,4.90
2018-01-13T12:12:01.721Z,4.90
2018-01-13T12:14:30.024Z,4.90
2018-01-13T12:16:57.557Z,4.80
2018-01-13T12:19:25.864Z,4.90
2018-01-13T12:21:53.405Z,4.80
2018-01-13T12:24:20.959Z,4.90
2018-01-13T12:26:49.256Z,4.80
2018-01-13T12:29:16.806Z,4.80
2018-01-13T12:31:44.338Z,4.80
2018-01-13T12:34:12.112Z,4.80
2018-01-13T12:36:39.648Z,4.80
2018-01-13T12:39:07.193Z,4.80
2018-01-13T12:41:34.721Z,4.90
2018-01-13T12:44:02.269Z,5.00
2018-01-13T12:46:29.798Z,5.00
2018-01-13T12:48:58.109Z,5.00
2018-01-13T12:51:25.645Z,5.00
2018-01-13T12:53:54.197Z,5.00
2018-01-13T12:56:21.724Z,5.00
2018-01-13T12:58:49.275Z,5.00
2018-01-13T13:01:16.804Z,5.00
2018-01-13T13:03:44.362Z,5.10
2018-01-13T13:06:11.907Z,5.10
2018-01-13T13:08:40.252Z,5.00
2018-01-13T13:11:07.803Z,5.00
2018-01-13T13:13:35.454Z,4.90
2018-01-13T13:16:02.982Z,4.90
2018-01-13T13:18:30.528Z,5.00
2018-01-13T13:20:58.828Z,5.10
2018-01-13T13:23:26.382Z,5.10
2018-01-13T13:25:53.917Z,5.20
2018-01-13T13:28:21.497Z,5.20
2018-01-13T13:30:49.121Z,5.20
2018-01-13T13:33:16.800Z,5.20
2018-01-13T13:35:45.116Z,5.10
2018-01-13T13:38:12.690Z,5.10
2018-01-13T13:40:40.485Z,5.10
2018-01-13T13:43:09.236Z,4.90
2018-01-13T13:45:36.845Z,4.90
2018-01-13T13:48:05.585Z,4.90
2018-01-13T13:50:34.320Z,4.90
2018-01-13T13:53:01.948Z,4.80
2018-01-13T13:55:30.844Z,4.70
2018-01-13T13:57:58.679Z,4.70
2018-01-13T14:00:26.249Z,4.60
2018-01-13T14:02:53.984Z,4.60
2018-01-13T14:05:21.610Z,4.50
2018-01-13T14:07:49.903Z,4.50
2018-01-13T14:10:17.477Z,4.50
2018-01-13T14:12:45.781Z,4.40
2018-01-13T14:15:13.344Z,4.40
2018-01-13T14:17:40.908Z,4.30
2018-01-13T14:20:08.513Z,4.30
2018-01-13T14:22:36.290Z,4.20
2018-01-13T14:25:03.844Z,4.20
2018-01-13T14:27:31.422Z,3.50
2018-01-13T14:29:59.045Z,4.20
2018-01-13T14:32:27.343Z,4.10
2018-01-13T14:34:54.876Z,4.10
2018-01-13T14:37:23.196Z,4.00
2018-01-13T14:39:50.738Z,4.00
2018-01-13T14:42:18.293Z,4.00
2018-01-13T14:44:45.825Z,4.00
2018-01-13T14:47:14.146Z,3.90
2018-01-13T14:49:41.685Z,3.90
2018-01-13T14:52:09.241Z,3.80
2018-01-13T14:54:36.772Z,3.90
2018-01-13T14:57:05.088Z,3.80
2018-01-13T14:59:32.621Z,3.80
2018-01-13T15:02:00.174Z,3.80
2018-01-13T15:04:28.477Z,3.70
2018-01-13T15:06:56.043Z,3.70
2018-01-13T15:09:23.578Z,3.70
2018-01-13T15:11:51.133Z,3.70
2018-01-13T15:14:18.660Z,3.70
2018-01-13T15:16:46.998Z,3.70
2018-01-13T15:19:14.528Z,3.60
2018-01-13T15:21:42.076Z,3.70
2018-01-13T15:24:10.377Z,3.60
2018-01-13T15:26:37.991Z,3.60
2018-01-13T15:29:06.292Z,3.60
2018-01-13T15:31:36.649Z,3.50
2018-01-13T15:34:04.425Z,3.50
2018-01-13T15:36:31.963Z,3.50
2018-01-13T15:38:59.508Z,3.50
2018-01-13T15:41:27.044Z,3.50
2018-01-13T15:43:55.369Z,3.40
2018-01-13T15:46:22.908Z,3.40
2018-01-13T15:48:50.473Z,3.40
2018-01-13T15:51:18.009Z,3.40
2018-01-13T15:53:46.337Z,3.30
2018-01-13T15:56:13.896Z,3.30
2018-01-13T15:58:41.450Z,3.30
2018-01-13T16:01:08.978Z,3.30
2018-01-13T16:03:36.528Z,3.30
2018-01-13T16:06:04.066Z,3.30
2018-01-13T16:08:32.383Z,3.20
2018-01-13T16:10:59.916Z,3.20
2018-01-13T16:13:27.480Z,3.20
2018-01-13T16:15:55.111Z,3.20
2018-01-13T16:18:22.687Z,3.30
2018-01-13T16:20:50.994Z,3.20
2018-01-13T16:23:18.544Z,3.20
2018-01-13T16:25:46.110Z,3.20
2018-01-13T16:28:13.721Z,3.20
2018-01-13T16:30:41.255Z,3.20
2018-01-13T16:33:08.809Z,3.10
2018-01-13T16:35:36.379Z,3.10
2018-01-13T16:38:03.937Z,3.00
2018-01-13T16:40:31.469Z,3.00
2018-01-13T16:42:59.017Z,3.00
2018-01-13T16:45:26.551Z,3.00
2018-01-13T16:47:54.095Z,3.00
2018-01-13T16:50:22.496Z,2.90
2018-01-13T16:52:50.075Z,2.90
2018-01-13T16:55:17.604Z,2.90
2018-01-13T16:57:45.166Z,2.90
2018-01-13T17:00:13.460Z,2.80
2018-01-13T17:02:41.054Z,2.90
2018-01-13T17:05:08.634Z,2.80
2018-01-13T17:07:36.189Z,2.80
2018-01-13T17:10:03.763Z,2.80
2018-01-13T17:12:32.096Z,2.80
2018-01-13T17:14:59.638Z,2.80
2018-01-13T17:17:27.202Z,2.80
2018-01-13T17:19:54.733Z,2.70
2018-01-13T17:22:22.276Z,2.80
2018-01-13T17:24:50.579Z,2.70
2018-01-13T17:27:18.143Z,2.70
2018-01-13T17:29:45.672Z,2.70
2018-01-13T17:32:13.973Z,2.60
2018-01-13T17:34:41.520Z,2.60
2018-01-13T17:37:09.092Z,2.60
2018-01-13T17:39:36.940Z,2.60
2018-01-13T17:42:04.482Z,2.60
2018-01-13T17:44:32.041Z,2.60
2018-01-13T17:47:00.402Z,2.60
2018-01-13T17:49:27.960Z,2.50
2018-01-13T17:51:55.535Z,2.60
2018-01-13T17:54:23.092Z,2.50
2018-01-13T17:56:50.629Z,2.50
2018-01-13T17:59:18.192Z,2.50
2018-01-13T18:01:45.789Z,2.50
2018-01-13T18:04:14.116Z,2.40
2018-01-13T18:06:41.655Z,2.40
2018-01-13T18:09:09.241Z,2.40
2018-01-13T18:11:36.794Z,2.40
2018-01-13T18:14:04.366Z,2.40
2018-01-13T18:16:31.921Z,2.40
2018-01-13T18:18:59.461Z,2.40
2018-01-13T18:21:27.059Z,2.40
2018-01-13T18:23:54.638Z,2.40
2018-01-13T18:26:22.946Z,2.30
2018-01-13T18:28:50.524Z,2.30
2018-01-13T18:31:18.081Z,2.30
2018-01-13T18:33:45.622Z,2.30
2018-01-13T18:36:13.239Z,2.30
2018-01-13T18:38:41.532Z,2.20
2018-01-13T18:41:09.096Z,2.20
2018-01-13T18:43:36.710Z,2.10
2018-01-13T18:46:04.321Z,2.20
2018-01-13T18:48:31.909Z,2.10
2018-01-13T18:50:59.511Z,2.10
2018-01-13T18:53:27.867Z,2.10
2018-01-13T18:55:55.479Z,2.10
2018-01-13T18:58:23.117Z,2.10
2018-01-13T19:00:50.694Z,2.10
2018-01-13T19:03:18.276Z,2.10
2018-01-13T19:05:45.781Z,2.10
2018-01-13T19:08:14.171Z,2.10
2018-01-13T19:10:42.530Z,2.10
2018-01-13T19:13:10.132Z,2.10
2018-01-13T19:15:37.668Z,2.10
2018-01-13T19:18:05.613Z,2.10
2018-01-13T19:20:33.153Z,2.10
2018-01-13T19:23:00.793Z,2.00
2018-01-13T19:25:28.315Z,2.10
2018-01-13T19:27:55.876Z,2.00
2018-01-13T19:30:23.451Z,2.00
2018-01-13T19:32:51.223Z,2.00
2018-01-13T19:35:18.765Z,2.00
2018-01-13T19:37:46.392Z,2.00
2018-01-13T19:40:13.995Z,1.90
2018-01-13T19:42:41.523Z,1.90
2018-01-13T19:45:09.126Z,1.80
2018-01-13T19:47:36.715Z,1.80
2018-01-13T19:50:04.331Z,1.80
2018-01-13T19:52:31.857Z,1.80
2018-01-13T19:55:00.184Z,1.80
2018-01-13T19:57:28.067Z,1.70
2018-01-13T19:59:55.675Z,1.80
2018-01-13T20:02:23.257Z,1.70
2018-01-13T20:04:50.884Z,1.70
2018-01-13T20:07:19.184Z,1.70
2018-01-13T20:09:46.750Z,1.70
2018-01-13T20:12:14.338Z,1.70
2018-01-13T20:14:41.956Z,1.70
2018-01-13T20:17:09.581Z,1.60
2018-01-13T20:19:37.173Z,1.60
2018-01-13T20:22:04.755Z,1.60
2018-01-13T20:24:32.355Z,1.60
2018-01-13T20:27:00.175Z,1.60
2018-01-13T20:29:27.777Z,1.60
2018-01-13T20:31:55.364Z,1.50
2018-01-13T20:34:23.728Z,1.40
2018-01-13T20:36:52.315Z,1.40
2018-01-13T20:39:20.688Z,1.40
2018-01-13T20:41:49.031Z,1.40
2018-01-13T20:44:16.641Z,1.40
2018-01-13T20:46:44.993Z,1.40
2018-01-13T20:49:12.553Z,1.40
2018-01-13T20:51:40.151Z,1.40
2018-01-13T20:54:07.777Z,1.40
2018-01-13T20:56:35.380Z,1.40
2018-01-13T20:59:02.976Z,1.40
2018-01-13T21:01:45.028Z,1.30
2018-01-13T21:04:12.792Z,1.40
2018-01-13T21:06:40.381Z,1.30
2018-01-13T21:09:07.959Z,1.30
2018-01-13T21:11:41.850Z,1.30
2018-01-13T21:14:09.430Z,1.30
2018-01-13T21:16:37.037Z,1.30
2018-01-13T21:19:04.617Z,1.30
2018-01-13T21:21:32.296Z,1.30
2018-01-13T21:23:59.824Z,1.30
2018-01-13T21:26:27.421Z,1.30
2018-01-13T21:28:54.985Z,1.30
2018-01-13T21:31:22.601Z,1.30
2018-01-13T21:33:50.177Z,1.30
2018-01-13T21:36:17.774Z,1.30
2018-01-13T21:38:45.364Z,1.30
2018-01-13T21:41:13.063Z,1.30
2018-01-13T21:43:40.644Z,1.30
2018-01-13T21:46:08.322Z,1.20
2018-01-13T21:48:35.869Z,1.20
2018-01-13T21:51:03.481Z,1.20
2018-01-13T21:53:31.081Z,1.20
2018-01-13T21:55:58.687Z,1.20
2018-01-13T21:58:26.270Z,1.20
2018-01-13T22:00:53.884Z,1.10
2018-01-13T22:03:22.224Z,1.10
2018-01-13T22:05:49.777Z,1.10
2018-01-13T22:08:17.355Z,1.10
2018-01-13T22:10:44.909Z,1.10
2018-01-13T22:13:12.484Z,1.10
2018-01-13T22:15:40.074Z,1.00
2018-01-13T22:18:08.416Z,1.00
2018-01-13T22:20:36.023Z,1.00
2018-01-13T22:23:03.608Z,0.90
2018-01-13T22:25:31.220Z,0.90
2018-01-13T22:27:59.554Z,0.90
2018-01-13T22:30:27.155Z,0.90
2018-01-13T22:32:55.507Z,0.90
2018-01-13T22:35:23.092Z,0.90
2018-01-13T22:37:50.675Z,0.90
2018-01-13T22:40:18.325Z,0.80
2018-01-13T22:42:45.888Z,0.80
2018-01-13T22:45:13.492Z,0.80
2018-01-13T22:47:41.015Z,0.80
2018-01-13T22:50:08.629Z,0.80
2018-01-13T22:52:36.157Z,0.80
2018-01-13T22:55:03.709Z,0.80
2018-01-13T22:57:31.287Z,0.80
2018-01-13T22:59:58.878Z,0.80
2018-01-13T23:02:27.251Z,0.80
2018-01-13T23:04:54.831Z,0.80
2018-01-13T23:07:22.442Z,0.70
2018-01-13T23:09:50.029Z,0.70
2018-01-13T23:12:17.638Z,0.70
2018-01-13T23:14:45.232Z,0.70
2018-01-13T23:17:12.798Z,0.70
2018-01-13T23:19:40.374Z,0.60
2018-01-13T23:22:08.749Z,0.60
2018-01-13T23:24:37.094Z,0.60
2018-01-13T23:27:16.617Z,0.60
2018-01-13T23:29:44.959Z,0.60
2018-01-13T23:32:13.324Z,0.60
2018-01-13T23:34:41.623Z,0.60
2018-01-13T23:37:09.188Z,0.60
2018-01-13T23:39:36.737Z,0.50
2018-01-13T23:42:04.305Z,0.50
2018-01-13T23:44:31.832Z,0.50
2018-01-13T23:47:00.153Z,0.50
2018-01-13T23:49:27.744Z,0.50
2018-01-13T23:51:55.308Z,0.50
2018-01-13T23:54:22.878Z,0.50
2018-01-13T23:56:50.420Z,0.50
2018-01-13T23:59:17.953Z,0.50
